CheckWX is a tool to help pilots better visualize weather data.  It is not intended as a substitute for an official pre-flight weather briefing.

02:15:09 UTC

LGSR METAR
Santorini Airport
Santorini Island, Greece
Current

8 hours ago

LGSR 071750Z 23005KT 9999 FEW018 SCT020 15/13 Q1017 RMK SCT080 BLU
Observed
Dec-7 @ 17:50 UTC
Wind
  • 230° at 5 KTS
Visibility
10,000+ meters
Flight Rules
VFR
Cloud Levels
  • Few at 1,800' AGL
  • Scattered at 2,000' AGL
Temperature
15°C / 59°F
Dewpoint
13°C / 55°F
Humidity
88%
Altimeter
30.03" Hg
Pressure
1016.92 hPa
Previous

9 hours ago

LGSR 071720Z 21004KT 9999 FEW018 SCT020 15/13 Q1017
Observed
Dec-7 @ 17:20 UTC
Wind
  • 210° at 4 KTS
Visibility
10,000+ meters
Flight Rules
VFR
Cloud Levels
  • Few at 1,800' AGL
  • Scattered at 2,000' AGL
Temperature
15°C / 59°F
Dewpoint
13°C / 55°F
Humidity
88%
Altimeter
30.03" Hg
Pressure
1016.92 hPa
Previous

9 hours ago

LGSR 071650Z 21006KT 9999 FEW018 SCT020 15/13 Q1017 RMK SCT080 BLU
Observed
Dec-7 @ 16:50 UTC
Wind
  • 210° at 6 KTS
Visibility
10,000+ meters
Flight Rules
VFR
Cloud Levels
  • Few at 1,800' AGL
  • Scattered at 2,000' AGL
Temperature
15°C / 59°F
Dewpoint
13°C / 55°F
Humidity
88%
Altimeter
30.03" Hg
Pressure
1016.92 hPa